createdAt,value
2023-03-16T00:02:06.605Z,-1.48
2023-03-16T00:05:09.780Z,-1.52
2023-03-16T00:08:11.432Z,-1.52
2023-03-16T00:11:13.164Z,-1.55
2023-03-16T00:14:14.736Z,-1.55
2023-03-16T00:17:20.252Z,-1.58
2023-03-16T00:20:23.356Z,-1.60
2023-03-16T00:23:29.457Z,-1.59
2023-03-16T00:26:31.999Z,-1.61
2023-03-16T00:29:34.843Z,-1.57
2023-03-16T00:32:38.519Z,-1.59
2023-03-16T00:35:40.569Z,-1.58
2023-03-16T00:38:45.364Z,-1.57
2023-03-16T00:41:47.304Z,-1.53
2023-03-16T00:44:57.402Z,-1.49
2023-03-16T00:48:00.345Z,-1.44
2023-03-16T00:51:04.313Z,-1.43
2023-03-16T00:54:06.077Z,-1.45
2023-03-16T00:57:07.704Z,-1.47
2023-03-16T01:00:17.327Z,-1.47
2023-03-16T01:03:21.206Z,-1.48
2023-03-16T01:06:23.104Z,-1.52
2023-03-16T01:09:24.732Z,-1.54
2023-03-16T01:12:27.903Z,-1.58
2023-03-16T01:15:30.950Z,-1.63
2023-03-16T01:18:36.127Z,-1.65
2023-03-16T01:21:38.411Z,-1.70
2023-03-16T01:24:40.721Z,-1.74
2023-03-16T01:27:43.196Z,-1.77
2023-03-16T01:30:45.227Z,-1.81
2023-03-16T01:33:47.113Z,-1.81
2023-03-16T01:36:54.282Z,-1.76
2023-03-16T01:40:06.305Z,-1.76
2023-03-16T01:43:11.426Z,-1.72
2023-03-16T01:46:20.233Z,-1.73
2023-03-16T01:49:34.162Z,-1.74
2023-03-16T01:52:38.120Z,-1.77
2023-03-16T01:55:41.888Z,-1.76
2023-03-16T01:58:44.667Z,-1.79
2023-03-16T02:01:50.255Z,-1.77
2023-03-16T02:05:09.853Z,-1.78
2023-03-16T02:08:12.558Z,-1.79
2023-03-16T02:11:22.616Z,-1.84
2023-03-16T02:14:31.764Z,-1.87
2023-03-16T02:17:36.599Z,-1.89
2023-03-16T02:20:50.664Z,-1.93
2023-03-16T02:23:53.540Z,-1.94
2023-03-16T02:27:04.626Z,-1.98
2023-03-16T02:30:16.023Z,-1.99
2023-03-16T02:33:32.748Z,-1.99
2023-03-16T02:36:36.422Z,-1.97
2023-03-16T02:39:38.335Z,-1.99
2023-03-16T02:42:41.783Z,-1.99
2023-03-16T02:45:49.869Z,-1.92
2023-03-16T02:49:25.010Z,-1.94
2023-03-16T02:52:26.780Z,-1.98
2023-03-16T02:55:28.471Z,-1.98
2023-03-16T02:58:32.060Z,-1.99
2023-03-16T03:01:36.677Z,-2.05
2023-03-16T03:04:38.699Z,-2.05
2023-03-16T03:07:42.219Z,-2.05
2023-03-16T03:10:44.034Z,-2.05
2023-03-16T03:13:47.476Z,-1.98
2023-03-16T03:16:54.055Z,-2.03
2023-03-16T03:20:02.416Z,-2.04
2023-03-16T03:23:04.183Z,-2.03
2023-03-16T03:26:07.262Z,-2.00
2023-03-16T03:29:09.466Z,-2.01
2023-03-16T03:32:11.442Z,-1.97
2023-03-16T03:35:14.854Z,-2.01
2023-03-16T03:38:17.290Z,-2.10
2023-03-16T03:41:22.710Z,-2.07
2023-03-16T03:44:27.221Z,-2.08
2023-03-16T03:47:30.770Z,-1.95
2023-03-16T03:50:33.387Z,-2.02
2023-03-16T03:53:54.735Z,-2.01
2023-03-16T03:57:13.468Z,-2.05
2023-03-16T04:00:15.945Z,-2.06
2023-03-16T04:03:19.548Z,-2.04
2023-03-16T04:06:23.959Z,-2.00
2023-03-16T04:09:26.464Z,-2.06
2023-03-16T04:12:28.332Z,-2.03
2023-03-16T04:15:34.837Z,-2.04
2023-03-16T04:18:51.118Z,-2.08
2023-03-16T04:21:53.098Z,-2.08
2023-03-16T04:24:55.178Z,-2.14
2023-03-16T04:27:58.788Z,-2.11
2023-03-16T04:31:09.397Z,-2.07
2023-03-16T04:34:15.385Z,-2.06
2023-03-16T04:37:17.067Z,-2.07
2023-03-16T04:40:19.598Z,-2.06
2023-03-16T04:43:28.028Z,-2.09
2023-03-16T04:46:36.244Z,-2.03
2023-03-16T04:49:42.065Z,-2.07
2023-03-16T04:52:44.004Z,-2.14
2023-03-16T04:55:48.200Z,-2.09
2023-03-16T04:58:51.164Z,-2.11
2023-03-16T05:01:55.086Z,-2.10
2023-03-16T05:04:59.639Z,-2.06
2023-03-16T05:08:01.601Z,-2.01
2023-03-16T05:11:05.646Z,-1.86
2023-03-16T05:14:12.674Z,-1.83
2023-03-16T05:17:32.338Z,-1.92
2023-03-16T05:20:34.057Z,-1.94
2023-03-16T05:23:37.533Z,-1.88
2023-03-16T05:26:39.327Z,-1.74
2023-03-16T05:29:46.835Z,-1.60
2023-03-16T05:32:48.794Z,-1.50
2023-03-16T05:35:51.615Z,-1.41
2023-03-16T05:38:54.063Z,-1.44
2023-03-16T05:42:06.026Z,-1.40
2023-03-16T05:45:24.058Z,-1.42
2023-03-16T05:48:36.699Z,-1.33
2023-03-16T05:51:39.753Z,-1.28
2023-03-16T05:54:42.963Z,-1.21
2023-03-16T05:57:45.790Z,-1.01
2023-03-16T06:00:48.180Z,-0.83
2023-03-16T06:03:57.328Z,-0.69
2023-03-16T06:07:02.646Z,-0.62
2023-03-16T06:10:09.257Z,-0.51
2023-03-16T06:13:11.722Z,-0.44
2023-03-16T06:16:14.628Z,-0.39
2023-03-16T06:19:16.888Z,-0.42
2023-03-16T06:22:20.755Z,-0.39
2023-03-16T06:25:24.237Z,-0.32
2023-03-16T06:28:27.412Z,-0.27
2023-03-16T06:31:31.070Z,-0.16
2023-03-16T06:34:35.849Z,-0.11
2023-03-16T06:37:38.976Z,-0.04
2023-03-16T06:40:55.231Z,0.04
2023-03-16T06:43:58.449Z,-0.01
2023-03-16T06:47:00.385Z,0.10
2023-03-16T06:50:02.394Z,0.13
2023-03-16T06:53:05.407Z,0.16
2023-03-16T06:56:09.177Z,0.19
2023-03-16T06:59:15.320Z,0.34
2023-03-16T07:02:17.069Z,0.47
2023-03-16T07:05:19.065Z,0.61
2023-03-16T07:08:22.755Z,0.74
2023-03-16T07:11:24.761Z,0.81
2023-03-16T07:14:26.853Z,0.92
2023-03-16T07:17:32.618Z,1.04
2023-03-16T07:20:35.619Z,1.12
2023-03-16T07:23:40.754Z,1.21
2023-03-16T07:26:44.194Z,1.32
2023-03-16T07:29:52.064Z,1.35
2023-03-16T07:32:54.038Z,1.35
2023-03-16T07:35:57.982Z,1.47
2023-03-16T07:39:00.029Z,1.69
2023-03-16T07:42:02.119Z,1.98
2023-03-16T07:45:14.450Z,2.24
2023-03-16T07:48:19.542Z,2.41
2023-03-16T07:51:31.334Z,2.46
2023-03-16T07:54:33.636Z,2.49
2023-03-16T07:57:35.764Z,2.47
2023-03-16T08:00:39.040Z,2.46
2023-03-16T08:03:41.111Z,2.47
2023-03-16T08:06:43.114Z,2.50
2023-03-16T08:09:45.243Z,2.54
2023-03-16T08:12:52.284Z,2.58
2023-03-16T08:16:03.396Z,2.61
2023-03-16T08:19:11.862Z,2.61
2023-03-16T08:22:14.264Z,2.69
2023-03-16T08:25:20.391Z,2.83
2023-03-16T08:28:31.853Z,3.00
2023-03-16T08:31:36.601Z,3.17
2023-03-16T08:34:47.418Z,3.39
2023-03-16T08:37:49.573Z,3.59
2023-03-16T08:40:52.154Z,3.74
2023-03-16T08:43:56.623Z,3.88
2023-03-16T08:46:58.860Z,3.91
2023-03-16T08:50:02.101Z,3.92
2023-03-16T08:53:03.901Z,3.86
2023-03-16T08:56:12.285Z,3.81
2023-03-16T08:59:27.388Z,3.80
2023-03-16T09:02:31.451Z,3.81
2023-03-16T09:05:34.238Z,3.93
2023-03-16T09:08:39.201Z,4.09
2023-03-16T09:11:41.933Z,4.24
2023-03-16T09:14:43.582Z,4.37
2023-03-16T09:17:45.961Z,4.54
2023-03-16T09:20:53.251Z,4.72
2023-03-16T09:23:54.980Z,4.86
2023-03-16T09:26:56.702Z,5.06
2023-03-16T09:30:00.750Z,5.19
2023-03-16T09:33:04.357Z,5.34
2023-03-16T09:36:06.411Z,5.50
2023-03-16T09:39:08.855Z,5.63
2023-03-16T09:42:46.502Z,5.75
2023-03-16T09:46:27.205Z,5.79
2023-03-16T09:49:36.318Z,5.86
2023-03-16T09:52:46.807Z,5.81
2023-03-16T09:55:55.209Z,5.66
2023-03-16T09:58:58.997Z,5.55
2023-03-16T10:02:26.469Z,5.55
2023-03-16T10:05:28.746Z,5.57
2023-03-16T10:08:43.085Z,5.66
2023-03-16T10:11:54.160Z,5.78
2023-03-16T10:15:05.890Z,5.98
2023-03-16T10:18:18.241Z,6.15
2023-03-16T10:21:21.424Z,6.35
2023-03-16T10:24:44.401Z,6.55
2023-03-16T10:27:47.153Z,6.68
2023-03-16T10:30:51.594Z,6.80
2023-03-16T10:34:02.906Z,6.95
2023-03-16T10:37:06.021Z,7.07
2023-03-16T10:40:09.382Z,7.08
2023-03-16T10:43:14.411Z,7.17
2023-03-16T10:46:16.822Z,7.31
2023-03-16T10:49:36.188Z,7.40
2023-03-16T10:52:47.040Z,7.39
2023-03-16T10:55:50.329Z,7.46
2023-03-16T10:58:52.576Z,7.45
2023-03-16T11:01:54.600Z,7.31
2023-03-16T11:04:57.518Z,7.28
2023-03-16T11:08:01.557Z,7.28
2023-03-16T11:11:18.761Z,7.44
2023-03-16T11:14:26.113Z,7.78
2023-03-16T11:17:41.783Z,8.19
2023-03-16T11:20:44.007Z,8.56
2023-03-16T11:23:56.711Z,8.84
2023-03-16T11:27:03.232Z,9.08
2023-03-16T11:30:09.828Z,9.32
2023-03-16T11:33:14.068Z,9.69
2023-03-16T11:36:41.811Z,10.00
2023-03-16T11:40:17.310Z,10.05
2023-03-16T11:43:46.830Z,9.89
2023-03-16T11:47:11.893Z,9.75
2023-03-16T11:50:24.663Z,9.73
2023-03-16T11:53:54.620Z,9.70
2023-03-16T11:57:02.224Z,9.76
2023-03-16T12:00:35.241Z,9.68
2023-03-16T12:04:20.585Z,9.34
2023-03-16T12:07:47.985Z,9.14
2023-03-16T12:11:04.581Z,9.07
2023-03-16T12:14:19.360Z,9.06
2023-03-16T12:17:27.783Z,9.08
2023-03-16T12:20:38.140Z,9.11
2023-03-16T12:23:49.487Z,9.01
2023-03-16T12:26:53.513Z,8.87
2023-03-16T12:30:24.700Z,8.79
2023-03-16T12:33:58.215Z,8.83
2023-03-16T12:37:22.004Z,9.03
2023-03-16T12:40:46.429Z,9.31
2023-03-16T12:44:10.026Z,9.58
2023-03-16T12:47:19.860Z,9.76
2023-03-16T12:50:22.802Z,9.78
2023-03-16T12:53:43.680Z,9.72
2023-03-16T12:56:46.984Z,9.71
2023-03-16T12:59:50.862Z,9.68
2023-03-16T13:03:01.180Z,9.69
2023-03-16T13:06:03.616Z,9.66
2023-03-16T13:09:08.873Z,9.60
2023-03-16T13:12:27.553Z,9.57
2023-03-16T13:15:30.028Z,9.46
2023-03-16T13:18:44.828Z,9.47
2023-03-16T13:21:47.605Z,9.50
2023-03-16T13:25:11.250Z,9.54
2023-03-16T13:28:16.279Z,9.69
2023-03-16T13:31:41.200Z,9.86
2023-03-16T13:34:56.728Z,9.84
2023-03-16T13:38:05.900Z,10.07
2023-03-16T13:41:15.085Z,10.53
2023-03-16T13:44:18.934Z,10.71
2023-03-16T13:47:21.131Z,10.79
2023-03-16T13:50:23.603Z,10.78
2023-03-16T13:53:31.571Z,10.87
2023-03-16T13:56:33.997Z,10.87
2023-03-16T13:59:36.684Z,10.83
2023-03-16T14:02:46.131Z,10.74
2023-03-16T14:05:48.534Z,10.49
2023-03-16T14:08:54.038Z,10.19
2023-03-16T14:11:58.841Z,9.99
2023-03-16T14:15:00.792Z,9.85
2023-03-16T14:18:18.886Z,9.61
2023-03-16T14:21:28.895Z,9.39
2023-03-16T14:24:35.377Z,9.15
2023-03-16T14:27:40.568Z,8.98
2023-03-16T14:30:53.728Z,8.90
2023-03-16T14:34:01.188Z,8.84
2023-03-16T14:37:10.734Z,8.79
2023-03-16T14:40:24.381Z,8.76
2023-03-16T14:43:38.333Z,8.74
2023-03-16T14:46:41.308Z,8.77
2023-03-16T14:49:43.543Z,8.77
2023-03-16T14:52:46.383Z,8.88
2023-03-16T14:55:47.993Z,8.98
2023-03-16T14:58:49.651Z,8.96
2023-03-16T15:01:54.693Z,8.77
2023-03-16T15:04:58.528Z,8.58
2023-03-16T15:08:00.949Z,8.39
2023-03-16T15:11:06.246Z,8.29
2023-03-16T15:14:38.186Z,8.24
2023-03-16T15:17:39.857Z,8.19
2023-03-16T15:20:45.434Z,8.19
2023-03-16T15:23:47.809Z,8.10
2023-03-16T15:26:49.693Z,8.10
2023-03-16T15:29:51.350Z,8.10
2023-03-16T15:32:53.321Z,8.08
2023-03-16T15:36:07.140Z,8.09
2023-03-16T15:39:22.470Z,8.07
2023-03-16T15:42:26.121Z,8.04
2023-03-16T15:45:28.728Z,7.92
2023-03-16T15:48:30.735Z,7.83
2023-03-16T15:51:32.941Z,7.68
2023-03-16T15:54:35.446Z,7.62
2023-03-16T15:57:37.227Z,7.52
2023-03-16T16:00:41.142Z,7.50
2023-03-16T16:03:43.796Z,7.45
2023-03-16T16:06:47.727Z,7.47
2023-03-16T16:09:50.041Z,7.42
2023-03-16T16:12:54.594Z,7.36
2023-03-16T16:16:02.788Z,7.30
2023-03-16T16:19:05.128Z,7.20
2023-03-16T16:22:13.093Z,7.23
2023-03-16T16:25:23.699Z,7.17
2023-03-16T16:28:30.803Z,7.09
2023-03-16T16:31:36.574Z,6.98
2023-03-16T16:34:39.371Z,6.85
2023-03-16T16:37:41.330Z,6.77
2023-03-16T16:40:46.145Z,6.64
2023-03-16T16:43:48.310Z,6.56
2023-03-16T16:46:52.131Z,6.50
2023-03-16T16:49:54.085Z,6.39
2023-03-16T16:52:57.327Z,6.36
2023-03-16T16:55:58.930Z,6.28
2023-03-16T16:59:31.453Z,6.25
2023-03-16T17:02:44.286Z,6.18
2023-03-16T17:05:46.305Z,6.13
2023-03-16T17:08:50.119Z,5.98
2023-03-16T17:11:53.064Z,5.91
2023-03-16T17:14:54.730Z,5.76
2023-03-16T17:18:04.090Z,5.60
2023-03-16T17:21:06.555Z,5.47
2023-03-16T17:24:08.431Z,5.36
2023-03-16T17:27:14.193Z,5.33
2023-03-16T17:30:23.558Z,5.22
2023-03-16T17:33:27.698Z,5.14
2023-03-16T17:36:30.023Z,5.15
2023-03-16T17:39:34.028Z,5.15
2023-03-16T17:42:36.155Z,5.14
2023-03-16T17:45:38.055Z,4.98
2023-03-16T17:48:40.375Z,4.95
2023-03-16T17:51:43.430Z,4.96
2023-03-16T17:54:47.676Z,4.98
2023-03-16T17:57:52.418Z,4.95
2023-03-16T18:00:55.366Z,4.95
2023-03-16T18:03:58.110Z,5.00
2023-03-16T18:06:59.700Z,4.95
2023-03-16T18:10:01.718Z,4.86
2023-03-16T18:13:08.515Z,4.81
2023-03-16T18:16:16.125Z,4.82
2023-03-16T18:19:25.179Z,4.79
2023-03-16T18:22:33.526Z,4.82
2023-03-16T18:25:39.539Z,4.83
2023-03-16T18:28:42.148Z,4.78
2023-03-16T18:31:47.642Z,4.72
2023-03-16T18:34:50.082Z,4.73
2023-03-16T18:37:54.737Z,4.64
2023-03-16T18:41:13.307Z,4.54
2023-03-16T18:44:21.629Z,4.57
2023-03-16T18:47:31.341Z,4.53
2023-03-16T18:50:33.291Z,4.51
2023-03-16T18:53:35.054Z,4.40
2023-03-16T18:56:37.108Z,4.34
2023-03-16T18:59:38.781Z,4.34
2023-03-16T19:02:42.728Z,4.24
2023-03-16T19:05:44.690Z,4.26
2023-03-16T19:08:46.314Z,4.12
2023-03-16T19:11:50.409Z,4.06
2023-03-16T19:14:52.381Z,4.02
2023-03-16T19:17:54.882Z,4.13
2023-03-16T19:20:57.047Z,4.09
2023-03-16T19:24:03.349Z,3.99
2023-03-16T19:27:32.440Z,4.00
2023-03-16T19:30:36.222Z,4.06
2023-03-16T19:33:38.882Z,4.06
2023-03-16T19:36:40.604Z,3.98
2023-03-16T19:39:44.202Z,4.00
2023-03-16T19:42:46.990Z,4.00
2023-03-16T19:45:51.504Z,3.96
2023-03-16T19:48:55.113Z,3.97
2023-03-16T19:51:57.555Z,3.92
2023-03-16T19:55:00.274Z,3.94
2023-03-16T19:58:07.543Z,3.94
2023-03-16T20:01:17.573Z,4.02
2023-03-16T20:04:23.238Z,4.07
2023-03-16T20:07:25.850Z,4.14
2023-03-16T20:10:29.395Z,4.21
2023-03-16T20:13:31.635Z,4.25
2023-03-16T20:16:36.146Z,4.36
2023-03-16T20:19:38.013Z,4.50
2023-03-16T20:22:39.680Z,4.54
2023-03-16T20:25:42.882Z,4.52
2023-03-16T20:28:46.483Z,4.62
2023-03-16T20:31:48.368Z,4.73
2023-03-16T20:34:51.438Z,4.68
2023-03-16T20:37:53.451Z,4.61
2023-03-16T20:40:55.962Z,4.61
2023-03-16T20:44:00.010Z,4.62
2023-03-16T20:47:01.822Z,4.61
2023-03-16T20:50:04.614Z,4.63
2023-03-16T20:53:06.605Z,4.59
2023-03-16T20:56:36.732Z,4.56
2023-03-16T20:59:39.349Z,4.59
2023-03-16T21:02:41.382Z,4.46
2023-03-16T21:05:43.693Z,4.42
2023-03-16T21:08:45.865Z,4.51
2023-03-16T21:11:48.379Z,4.56
2023-03-16T21:14:51.539Z,4.48
2023-03-16T21:17:59.705Z,4.50
2023-03-16T21:21:01.930Z,4.44
2023-03-16T21:24:03.777Z,4.47
2023-03-16T21:27:06.340Z,4.48
2023-03-16T21:30:36.176Z,4.34
2023-03-16T21:33:40.567Z,4.37
2023-03-16T21:36:44.372Z,4.39
2023-03-16T21:39:48.067Z,4.35
2023-03-16T21:42:50.098Z,4.23
2023-03-16T21:45:52.683Z,4.27
2023-03-16T21:48:55.819Z,4.28
2023-03-16T21:51:57.695Z,4.16
2023-03-16T21:55:00.623Z,4.16
2023-03-16T21:58:02.846Z,4.20
2023-03-16T22:01:04.589Z,4.21
2023-03-16T22:04:11.692Z,4.16
2023-03-16T22:07:13.803Z,4.07
2023-03-16T22:10:16.065Z,4.05
2023-03-16T22:13:24.444Z,3.97
2023-03-16T22:16:29.990Z,3.92
2023-03-16T22:19:32.776Z,3.91
2023-03-16T22:22:34.626Z,3.97
2023-03-16T22:25:36.267Z,3.95
2023-03-16T22:28:38.349Z,4.00
2023-03-16T22:31:41.320Z,4.02
2023-03-16T22:34:46.817Z,4.03
2023-03-16T22:37:48.521Z,4.02
2023-03-16T22:40:51.544Z,4.08
2023-03-16T22:43:54.273Z,3.98
2023-03-16T22:46:56.175Z,3.96
2023-03-16T22:49:58.394Z,3.92
2023-03-16T22:53:04.333Z,3.85
2023-03-16T22:56:07.930Z,3.83
2023-03-16T22:59:14.958Z,3.81
2023-03-16T23:02:20.620Z,3.78
2023-03-16T23:05:25.848Z,3.78
2023-03-16T23:08:27.915Z,3.84
2023-03-16T23:11:32.285Z,4.02
2023-03-16T23:14:37.108Z,4.09
2023-03-16T23:17:38.870Z,4.14
2023-03-16T23:20:40.496Z,4.08
2023-03-16T23:23:57.153Z,4.20
2023-03-16T23:27:06.787Z,4.10
2023-03-16T23:30:16.700Z,4.09
2023-03-16T23:33:18.368Z,4.04
2023-03-16T23:36:22.673Z,4.05
2023-03-16T23:39:24.251Z,3.98
2023-03-16T23:42:25.904Z,4.03
2023-03-16T23:45:48.198Z,3.93
2023-03-16T23:48:51.892Z,3.97
2023-03-16T23:51:57.398Z,3.94
2023-03-16T23:55:00.618Z,4.04
2023-03-16T23:58:02.722Z,3.97
